sensor_id;sensor_type;location;lat;lon;timestamp;pressure;altitude;pressure_sealevel;temperature;humidity
64889;BME280;51386;53.082;8.816;2023-01-15T00:01:45;99443.19;;;12.63;59.19
64889;BME280;51386;53.082;8.816;2023-01-15T00:04:12;99442.75;;;12.66;59.37
64889;BME280;51386;53.082;8.816;2023-01-15T00:06:41;99438.63;;;12.70;59.34
64889;BME280;51386;53.082;8.816;2023-01-15T00:09:13;99437.47;;;12.66;58.90
64889;BME280;51386;53.082;8.816;2023-01-15T00:11:40;99443.19;;;12.63;59.45
64889;BME280;51386;53.082;8.816;2023-01-15T00:14:09;99436.91;;;12.64;59.11
64889;BME280;51386;53.082;8.816;2023-01-15T00:16:36;99444.38;;;12.67;59.55
64889;BME280;51386;53.082;8.816;2023-01-15T00:19:03;99435.00;;;12.71;59.29
64889;BME280;51386;53.082;8.816;2023-01-15T00:21:31;99432.34;;;12.71;58.95
64889;BME280;51386;53.082;8.816;2023-01-15T00:23:58;99440.25;;;12.71;59.17
64889;BME280;51386;53.082;8.816;2023-01-15T00:26:43;99428.09;;;12.70;59.13
64889;BME280;51386;53.082;8.816;2023-01-15T00:29:31;99433.00;;;12.66;59.41
64889;BME280;51386;53.082;8.816;2023-01-15T00:32:03;99446.41;;;12.65;58.95
64889;BME280;51386;53.082;8.816;2023-01-15T00:34:32;99453.31;;;12.66;59.03
64889;BME280;51386;53.082;8.816;2023-01-15T00:37:01;99449.66;;;12.67;58.81
64889;BME280;51386;53.082;8.816;2023-01-15T00:39:28;99451.69;;;12.65;58.65
64889;BME280;51386;53.082;8.816;2023-01-15T00:41:55;99450.09;;;12.64;58.55
64889;BME280;51386;53.082;8.816;2023-01-15T00:44:22;99456.19;;;12.64;58.95
64889;BME280;51386;53.082;8.816;2023-01-15T00:46:51;99452.72;;;12.64;58.70
64889;BME280;51386;53.082;8.816;2023-01-15T00:49:18;99459.25;;;12.61;58.44
64889;BME280;51386;53.082;8.816;2023-01-15T00:51:45;99464.75;;;12.60;58.52
64889;BME280;51386;53.082;8.816;2023-01-15T00:54:13;99463.22;;;12.52;57.58
64889;BME280;51386;53.082;8.816;2023-01-15T00:56:40;99459.59;;;12.47;58.10
64889;BME280;51386;53.082;8.816;2023-01-15T00:59:07;99468.09;;;12.49;58.11
64889;BME280;51386;53.082;8.816;2023-01-15T01:01:34;99470.31;;;12.52;57.70
64889;BME280;51386;53.082;8.816;2023-01-15T01:04:02;99461.16;;;12.54;58.14
64889;BME280;51386;53.082;8.816;2023-01-15T01:06:29;99465.63;;;12.54;58.03
64889;BME280;51386;53.082;8.816;2023-01-15T01:08:56;99471.91;;;12.53;57.93
64889;BME280;51386;53.082;8.816;2023-01-15T01:11:25;99472.53;;;12.55;57.78
64889;BME280;51386;53.082;8.816;2023-01-15T01:13:53;99472.94;;;12.52;57.70
64889;BME280;51386;53.082;8.816;2023-01-15T01:16:25;99463.41;;;12.51;57.68
64889;BME280;51386;53.082;8.816;2023-01-15T01:18:53;99473.19;;;12.50;57.32
64889;BME280;51386;53.082;8.816;2023-01-15T01:21:21;99483.50;;;12.52;57.57
64889;BME280;51386;53.082;8.816;2023-01-15T01:23:48;99480.28;;;12.50;57.31
64889;BME280;51386;53.082;8.816;2023-01-15T01:26:16;99479.81;;;12.53;57.44
64889;BME280;51386;53.082;8.816;2023-01-15T01:28:47;99485.09;;;12.53;57.15
64889;BME280;51386;53.082;8.816;2023-01-15T01:31:15;99474.28;;;12.43;56.50
64889;BME280;51386;53.082;8.816;2023-01-15T01:33:42;99479.38;;;12.38;57.00
64889;BME280;51386;53.082;8.816;2023-01-15T01:36:09;99474.28;;;12.43;56.64
64889;BME280;51386;53.082;8.816;2023-01-15T01:38:38;99482.84;;;12.38;56.86
64889;BME280;51386;53.082;8.816;2023-01-15T01:41:05;99486.41;;;12.44;56.85
64889;BME280;51386;53.082;8.816;2023-01-15T01:43:54;99480.31;;;12.43;56.96
64889;BME280;51386;53.082;8.816;2023-01-15T01:46:21;99482.94;;;12.50;56.94
64889;BME280;51386;53.082;8.816;2023-01-15T01:48:53;99475.81;;;12.50;56.83
64889;BME280;51386;53.082;8.816;2023-01-15T01:51:26;99471.78;;;12.48;56.77
64889;BME280;51386;53.082;8.816;2023-01-15T01:53:57;99477.25;;;12.46;56.61
64889;BME280;51386;53.082;8.816;2023-01-15T01:56:26;99465.88;;;12.46;56.85
64889;BME280;51386;53.082;8.816;2023-01-15T01:58:54;99466.53;;;12.41;56.87
64889;BME280;51386;53.082;8.816;2023-01-15T02:01:24;99469.00;;;12.43;56.90
64889;BME280;51386;53.082;8.816;2023-01-15T02:03:52;99475.88;;;12.44;56.91
64889;BME280;51386;53.082;8.816;2023-01-15T02:06:22;99484.59;;;12.44;56.89
64889;BME280;51386;53.082;8.816;2023-01-15T02:08:50;99479.53;;;12.43;56.98
64889;BME280;51386;53.082;8.816;2023-01-15T02:11:22;99471.16;;;12.46;57.00
64889;BME280;51386;53.082;8.816;2023-01-15T02:13:57;99486.22;;;12.45;56.85
64889;BME280;51386;53.082;8.816;2023-01-15T02:16:35;99473.22;;;12.44;56.97
64889;BME280;51386;53.082;8.816;2023-01-15T02:19:18;99469.19;;;12.41;56.87
64889;BME280;51386;53.082;8.816;2023-01-15T02:21:57;99474.28;;;12.43;56.70
64889;BME280;51386;53.082;8.816;2023-01-15T02:24:36;99476.91;;;12.43;56.84
64889;BME280;51386;53.082;8.816;2023-01-15T02:27:15;99476.91;;;12.43;56.69
64889;BME280;51386;53.082;8.816;2023-01-15T02:29:58;99489.50;;;12.41;56.71
64889;BME280;51386;53.082;8.816;2023-01-15T02:32:38;99474.69;;;12.40;56.87
64889;BME280;51386;53.082;8.816;2023-01-15T02:35:13;99478.97;;;12.41;56.68
64889;BME280;51386;53.082;8.816;2023-01-15T02:37:50;99476.94;;;12.36;56.76
64889;BME280;51386;53.082;8.816;2023-01-15T02:40:20;99472.47;;;12.37;56.55
64889;BME280;51386;53.082;8.816;2023-01-15T02:42:50;99477.34;;;12.40;56.70
64889;BME280;51386;53.082;8.816;2023-01-15T02:45:21;99478.81;;;12.36;56.78
64889;BME280;51386;53.082;8.816;2023-01-15T02:47:52;99483.25;;;12.35;56.78
64889;BME280;51386;53.082;8.816;2023-01-15T02:50:26;99473.53;;;12.36;56.44
64889;BME280;51386;53.082;8.816;2023-01-15T02:53:00;99481.63;;;12.34;56.34
64889;BME280;51386;53.082;8.816;2023-01-15T02:55:36;99486.91;;;12.34;56.59
64889;BME280;51386;53.082;8.816;2023-01-15T02:58:12;99465.66;;;12.29;56.45
64889;BME280;51386;53.082;8.816;2023-01-15T03:00:45;99467.50;;;12.29;56.30
64889;BME280;51386;53.082;8.816;2023-01-15T03:03:21;99466.69;;;12.28;56.25
64889;BME280;51386;53.082;8.816;2023-01-15T03:05:58;99465.88;;;12.28;56.26
64889;BME280;51386;53.082;8.816;2023-01-15T03:08:26;99470.13;;;12.29;56.37
64889;BME280;51386;53.082;8.816;2023-01-15T03:11:03;99451.66;;;12.29;56.16
64889;BME280;51386;53.082;8.816;2023-01-15T03:13:44;99456.56;;;12.25;56.29
64889;BME280;51386;53.082;8.816;2023-01-15T03:16:21;99458.03;;;12.21;55.97
64889;BME280;51386;53.082;8.816;2023-01-15T03:19:20;99459.84;;;12.20;56.44
64889;BME280;51386;53.082;8.816;2023-01-15T03:21:55;99455.38;;;12.21;56.14
64889;BME280;51386;53.082;8.816;2023-01-15T03:24:31;99455.81;;;12.18;55.69
64889;BME280;51386;53.082;8.816;2023-01-15T03:27:00;99451.41;;;12.12;55.39
64889;BME280;51386;53.082;8.816;2023-01-15T03:29:32;99446.63;;;12.02;56.04
64889;BME280;51386;53.082;8.816;2023-01-15T03:32:00;99443.34;;;12.07;55.80
64889;BME280;51386;53.082;8.816;2023-01-15T03:34:35;99438.00;;;12.13;55.60
64889;BME280;51386;53.082;8.816;2023-01-15T03:37:03;99440.06;;;12.11;55.61
64889;BME280;51386;53.082;8.816;2023-01-15T03:39:30;99429.66;;;12.16;56.00
64889;BME280;51386;53.082;8.816;2023-01-15T03:42:11;99423.34;;;12.17;55.17
64889;BME280;51386;53.082;8.816;2023-01-15T03:44:54;99425.41;;;12.15;55.42
64889;BME280;51386;53.082;8.816;2023-01-15T03:47:32;99433.91;;;12.17;55.36
64889;BME280;51386;53.082;8.816;2023-01-15T03:50:13;99433.97;;;12.11;55.25
64889;BME280;51386;53.082;8.816;2023-01-15T03:52:47;99433.16;;;12.10;55.47
64889;BME280;51386;53.082;8.816;2023-01-15T03:55:20;99427.50;;;12.07;55.53
64889;BME280;51386;53.082;8.816;2023-01-15T03:57:53;99434.78;;;12.11;55.34
64889;BME280;51386;53.082;8.816;2023-01-15T04:00:27;99429.06;;;12.14;55.24
64889;BME280;51386;53.082;8.816;2023-01-15T04:02:57;99430.00;;;12.20;55.12
64889;BME280;51386;53.082;8.816;2023-01-15T04:05:28;99423.31;;;12.24;55.13
64889;BME280;51386;53.082;8.816;2023-01-15T04:07:57;99427.53;;;12.25;54.93
64889;BME280;51386;53.082;8.816;2023-01-15T04:10:25;99424.09;;;12.24;54.80
64889;BME280;51386;53.082;8.816;2023-01-15T04:12:52;99410.91;;;12.24;54.84
64889;BME280;51386;53.082;8.816;2023-01-15T04:15:19;99414.72;;;12.29;54.93
64889;BME280;51386;53.082;8.816;2023-01-15T04:17:48;99408.00;;;12.33;54.97
64889;BME280;51386;53.082;8.816;2023-01-15T04:20:15;99423.97;;;12.38;54.75
64889;BME280;51386;53.082;8.816;2023-01-15T04:22:42;99423.38;;;12.36;54.60
64889;BME280;51386;53.082;8.816;2023-01-15T04:25:09;99413.41;;;12.38;54.68
64889;BME280;51386;53.082;8.816;2023-01-15T04:27:36;99422.72;;;12.40;54.47
64889;BME280;51386;53.082;8.816;2023-01-15T04:30:05;99425.56;;;12.39;54.14
64889;BME280;51386;53.082;8.816;2023-01-15T04:32:32;99434.53;;;12.38;54.14
64889;BME280;51386;53.082;8.816;2023-01-15T04:35:00;99434.09;;;12.41;54.17
64889;BME280;51386;53.082;8.816;2023-01-15T04:37:27;99425.53;;;12.45;54.04
64889;BME280;51386;53.082;8.816;2023-01-15T04:39:54;99421.50;;;12.43;53.73
64889;BME280;51386;53.082;8.816;2023-01-15T04:42:21;99419.63;;;12.43;53.75
64889;BME280;51386;53.082;8.816;2023-01-15T04:45:08;99413.19;;;12.39;53.09
64889;BME280;51386;53.082;8.816;2023-01-15T04:47:35;99417.44;;;12.40;53.20
64889;BME280;51386;53.082;8.816;2023-01-15T04:50:05;99412.53;;;12.44;53.59
64889;BME280;51386;53.082;8.816;2023-01-15T04:52:32;99410.03;;;12.49;53.50
64889;BME280;51386;53.082;8.816;2023-01-15T04:54:58;99417.09;;;12.55;53.48
64889;BME280;51386;53.082;8.816;2023-01-15T04:57:27;99404.75;;;12.49;52.77
64889;BME280;51386;53.082;8.816;2023-01-15T04:59:54;99413.94;;;12.46;53.13
64889;BME280;51386;53.082;8.816;2023-01-15T05:02:21;99398.59;;;12.18;52.96
64889;BME280;51386;53.082;8.816;2023-01-15T05:04:48;99395.22;;;12.11;53.22
64889;BME280;51386;53.082;8.816;2023-01-15T05:07:17;99407.09;;;12.20;53.24
64889;BME280;51386;53.082;8.816;2023-01-15T05:09:45;99400.50;;;12.30;53.26
64889;BME280;51386;53.082;8.816;2023-01-15T05:12:14;99397.78;;;12.36;53.03
64889;BME280;51386;53.082;8.816;2023-01-15T05:14:41;99398.75;;;12.42;52.97
64889;BME280;51386;53.082;8.816;2023-01-15T05:17:08;99393.91;;;12.39;51.99
64889;BME280;51386;53.082;8.816;2023-01-15T05:19:35;99392.16;;;12.33;52.54
64889;BME280;51386;53.082;8.816;2023-01-15T05:22:02;99391.16;;;12.34;52.38
64889;BME280;51386;53.082;8.816;2023-01-15T05:24:30;99396.78;;;12.37;52.32
64889;BME280;51386;53.082;8.816;2023-01-15T05:26:58;99392.31;;;12.38;52.13
64889;BME280;51386;53.082;8.816;2023-01-15T05:29:25;99391.06;;;12.40;51.99
64889;BME280;51386;53.082;8.816;2023-01-15T05:31:52;99389.81;;;12.43;51.69
64889;BME280;51386;53.082;8.816;2023-01-15T05:34:19;99384.56;;;12.43;51.93
64889;BME280;51386;53.082;8.816;2023-01-15T05:36:46;99399.56;;;12.42;51.40
64889;BME280;51386;53.082;8.816;2023-01-15T05:39:13;99381.31;;;12.41;51.50
64889;BME280;51386;53.082;8.816;2023-01-15T05:41:41;99385.41;;;12.37;51.32
64889;BME280;51386;53.082;8.816;2023-01-15T05:44:21;99387.03;;;12.38;51.80
64889;BME280;51386;53.082;8.816;2023-01-15T05:46:51;99397.16;;;12.41;51.91
64889;BME280;51386;53.082;8.816;2023-01-15T05:49:21;99398.31;;;12.45;51.67
64889;BME280;51386;53.082;8.816;2023-01-15T05:51:50;99393.47;;;12.42;51.76
64889;BME280;51386;53.082;8.816;2023-01-15T05:54:23;99406.50;;;12.37;51.80
64889;BME280;51386;53.082;8.816;2023-01-15T05:56:51;99409.47;;;12.29;52.03
64889;BME280;51386;53.082;8.816;2023-01-15T05:59:21;99401.69;;;12.34;52.08
64889;BME280;51386;53.082;8.816;2023-01-15T06:01:49;99409.31;;;12.42;52.00
64889;BME280;51386;53.082;8.816;2023-01-15T06:04:17;99414.59;;;12.42;51.92
64889;BME280;51386;53.082;8.816;2023-01-15T06:06:48;99411.53;;;12.45;51.72
64889;BME280;51386;53.082;8.816;2023-01-15T06:09:17;99409.47;;;12.47;51.84
64889;BME280;51386;53.082;8.816;2023-01-15T06:11:44;99412.69;;;12.49;51.77
64889;BME280;51386;53.082;8.816;2023-01-15T06:14:13;99413.72;;;12.48;51.29
64889;BME280;51386;53.082;8.816;2023-01-15T06:16:41;99407.84;;;12.28;51.33
64889;BME280;51386;53.082;8.816;2023-01-15T06:19:10;99397.28;;;12.28;51.40
64889;BME280;51386;53.082;8.816;2023-01-15T06:21:38;99412.28;;;12.27;51.58
64889;BME280;51386;53.082;8.816;2023-01-15T06:24:07;99400.56;;;12.23;51.95
64889;BME280;51386;53.082;8.816;2023-01-15T06:26:34;99412.53;;;12.26;52.05
64889;BME280;51386;53.082;8.816;2023-01-15T06:29:01;99400.94;;;12.27;51.68
64889;BME280;51386;53.082;8.816;2023-01-15T06:31:29;99410.47;;;12.28;51.68
64889;BME280;51386;53.082;8.816;2023-01-15T06:33:56;99401.31;;;12.30;52.00
64889;BME280;51386;53.082;8.816;2023-01-15T06:36:25;99400.50;;;12.30;51.53
64889;BME280;51386;53.082;8.816;2023-01-15T06:38:53;99404.19;;;12.29;51.51
64889;BME280;51386;53.082;8.816;2023-01-15T06:41:23;99399.50;;;12.31;51.66
64889;BME280;51386;53.082;8.816;2023-01-15T06:44:12;99389.94;;;12.30;51.73
64889;BME280;51386;53.082;8.816;2023-01-15T06:47:02;99397.28;;;12.28;51.11
64889;BME280;51386;53.082;8.816;2023-01-15T06:49:51;99390.38;;;12.27;51.43
64889;BME280;51386;53.082;8.816;2023-01-15T06:52:18;99391.66;;;12.24;51.24
64889;BME280;51386;53.082;8.816;2023-01-15T06:54:45;99402.97;;;12.24;51.46
64889;BME280;51386;53.082;8.816;2023-01-15T06:57:12;99391.66;;;12.24;51.08
64889;BME280;51386;53.082;8.816;2023-01-15T06:59:39;99392.06;;;12.21;51.48
64889;BME280;51386;53.082;8.816;2023-01-15T07:02:09;99381.13;;;12.17;51.20
64889;BME280;51386;53.082;8.816;2023-01-15T07:04:36;99384.25;;;12.14;51.60
64889;BME280;51386;53.082;8.816;2023-01-15T07:07:03;99389.94;;;12.11;51.29
64889;BME280;51386;53.082;8.816;2023-01-15T07:09:30;99386.25;;;12.12;51.04
64889;BME280;51386;53.082;8.816;2023-01-15T07:11:57;99397.44;;;12.14;51.12
64889;BME280;51386;53.082;8.816;2023-01-15T07:14:25;99390.09;;;12.16;50.83
64889;BME280;51386;53.082;8.816;2023-01-15T07:16:54;99381.13;;;12.17;50.67
64889;BME280;51386;53.082;8.816;2023-01-15T07:19:22;99381.59;;;12.14;50.47
64889;BME280;51386;53.082;8.816;2023-01-15T07:21:49;99388.59;;;12.02;50.70
64889;BME280;51386;53.082;8.816;2023-01-15T07:24:17;99396.72;;;12.01;50.77
64889;BME280;51386;53.082;8.816;2023-01-15T07:26:44;99393.13;;;11.95;50.50
64889;BME280;51386;53.082;8.816;2023-01-15T07:29:12;99387.63;;;11.97;50.43
64889;BME280;51386;53.082;8.816;2023-01-15T07:31:39;99379.78;;;11.90;51.02
64889;BME280;51386;53.082;8.816;2023-01-15T07:34:07;99389.88;;;11.93;51.15
64889;BME280;51386;53.082;8.816;2023-01-15T07:36:35;99388.06;;;11.94;50.94
64889;BME280;51386;53.082;8.816;2023-01-15T07:39:03;99391.75;;;11.93;50.90
64889;BME280;51386;53.082;8.816;2023-01-15T07:41:31;99386.94;;;11.83;50.50
64889;BME280;51386;53.082;8.816;2023-01-15T07:44:17;99396.53;;;11.78;51.07
64889;BME280;51386;53.082;8.816;2023-01-15T07:47:02;99403.03;;;11.75;51.23
64889;BME280;51386;53.082;8.816;2023-01-15T07:49:54;99405.66;;;11.75;51.02
64889;BME280;51386;53.082;8.816;2023-01-15T07:52:23;99407.88;;;11.78;51.09
64889;BME280;51386;53.082;8.816;2023-01-15T07:54:50;99403.84;;;11.76;51.50
64889;BME280;51386;53.082;8.816;2023-01-15T07:57:20;99399.63;;;11.68;51.38
64889;BME280;51386;53.082;8.816;2023-01-15T07:59:48;99409.94;;;11.70;51.26
64889;BME280;51386;53.082;8.816;2023-01-15T08:02:15;99414.25;;;11.64;51.76
64889;BME280;51386;53.082;8.816;2023-01-15T08:04:42;99406.75;;;11.61;52.14
64889;BME280;51386;53.082;8.816;2023-01-15T08:07:09;99398.44;;;11.64;51.72
64889;BME280;51386;53.082;8.816;2023-01-15T08:09:40;99403.53;;;11.59;51.50
64889;BME280;51386;53.082;8.816;2023-01-15T08:12:09;99393.56;;;11.61;51.54
64889;BME280;51386;53.082;8.816;2023-01-15T08:14:55;99397.50;;;11.52;50.68
64889;BME280;51386;53.082;8.816;2023-01-15T08:17:43;99413.38;;;11.45;50.95
64889;BME280;51386;53.082;8.816;2023-01-15T08:20:14;99412.13;;;11.48;50.58
64889;BME280;51386;53.082;8.816;2023-01-15T08:22:42;99418.16;;;11.55;50.03
64889;BME280;51386;53.082;8.816;2023-01-15T08:25:14;99400.50;;;11.55;49.79
64889;BME280;51386;53.082;8.816;2023-01-15T08:27:42;99402.78;;;11.52;49.64
64889;BME280;51386;53.082;8.816;2023-01-15T08:30:12;99410.50;;;11.47;48.81
64889;BME280;51386;53.082;8.816;2023-01-15T08:32:40;99402.38;;;11.48;49.54
64889;BME280;51386;53.082;8.816;2023-01-15T08:35:08;99394.16;;;11.38;49.35
64889;BME280;51386;53.082;8.816;2023-01-15T08:37:35;99399.16;;;11.46;49.48
64889;BME280;51386;53.082;8.816;2023-01-15T08:40:03;99383.81;;;11.37;49.13
64889;BME280;51386;53.082;8.816;2023-01-15T08:42:32;99398.78;;;11.43;49.28
64889;BME280;51386;53.082;8.816;2023-01-15T08:44:59;99410.50;;;11.47;48.87
64889;BME280;51386;53.082;8.816;2023-01-15T08:47:26;99403.03;;;11.44;48.77
64889;BME280;51386;53.082;8.816;2023-01-15T08:49:52;99401.63;;;11.41;47.74
64889;BME280;51386;53.082;8.816;2023-01-15T08:52:20;99404.06;;;11.43;48.42
64889;BME280;51386;53.082;8.816;2023-01-15T08:54:47;99403.59;;;11.46;48.56
64889;BME280;51386;53.082;8.816;2023-01-15T08:57:14;99408.88;;;11.46;48.40
64889;BME280;51386;53.082;8.816;2023-01-15T08:59:43;99397.16;;;11.42;47.97
64889;BME280;51386;53.082;8.816;2023-01-15T09:02:13;99406.13;;;11.34;48.73
64889;BME280;51386;53.082;8.816;2023-01-15T09:04:40;99405.56;;;11.26;49.03
64889;BME280;51386;53.082;8.816;2023-01-15T09:07:07;99390.38;;;11.28;49.18
64889;BME280;51386;53.082;8.816;2023-01-15T09:09:34;99406.38;;;11.26;49.60
64889;BME280;51386;53.082;8.816;2023-01-15T09:12:01;99409.22;;;11.25;50.04
64889;BME280;51386;53.082;8.816;2023-01-15T09:14:29;99416.28;;;11.31;50.05
64889;BME280;51386;53.082;8.816;2023-01-15T09:17:17;99409.56;;;11.35;50.13
64889;BME280;51386;53.082;8.816;2023-01-15T09:19:45;99404.88;;;11.37;50.11
64889;BME280;51386;53.082;8.816;2023-01-15T09:22:12;99411.44;;;11.28;50.06
64889;BME280;51386;53.082;8.816;2023-01-15T09:24:39;99416.09;;;11.26;50.19
64889;BME280;51386;53.082;8.816;2023-01-15T09:27:06;99407.16;;;11.33;50.76
64889;BME280;51386;53.082;8.816;2023-01-15T09:29:32;99417.50;;;11.28;50.26
64889;BME280;51386;53.082;8.816;2023-01-15T09:31:59;99409.34;;;11.36;50.37
64889;BME280;51386;53.082;8.816;2023-01-15T09:34:29;99410.50;;;11.47;49.49
64889;BME280;51386;53.082;8.816;2023-01-15T09:36:56;99411.25;;;11.54;49.10
64889;BME280;51386;53.082;8.816;2023-01-15T09:39:23;99409.16;;;11.63;48.55
64889;BME280;51386;53.082;8.816;2023-01-15T09:42:14;99428.00;;;11.66;48.63
64889;BME280;51386;53.082;8.816;2023-01-15T09:45:04;99427.34;;;11.77;48.00
64889;BME280;51386;53.082;8.816;2023-01-15T09:47:43;99423.97;;;11.95;47.81
64889;BME280;51386;53.082;8.816;2023-01-15T09:50:29;99424.94;;;12.00;47.08
64889;BME280;51386;53.082;8.816;2023-01-15T09:53:20;99416.63;;;11.97;46.41
64889;BME280;51386;53.082;8.816;2023-01-15T09:55:53;99417.16;;;12.05;46.53
64889;BME280;51386;53.082;8.816;2023-01-15T09:58:30;99414.53;;;12.05;45.90
64889;BME280;51386;53.082;8.816;2023-01-15T10:00:59;99415.66;;;12.16;45.87
64889;BME280;51386;53.082;8.816;2023-01-15T10:03:34;99414.66;;;12.35;46.21
64889;BME280;51386;53.082;8.816;2023-01-15T10:06:13;99422.66;;;12.47;45.75
64889;BME280;51386;53.082;8.816;2023-01-15T10:08:44;99428.66;;;12.54;44.96
64889;BME280;51386;53.082;8.816;2023-01-15T10:11:27;99425.28;;;12.65;45.07
64889;BME280;51386;53.082;8.816;2023-01-15T10:14:31;99411.97;;;12.78;44.99
64889;BME280;51386;53.082;8.816;2023-01-15T10:17:19;99406.09;;;12.76;44.84
64889;BME280;51386;53.082;8.816;2023-01-15T10:19:48;99413.69;;;12.84;44.85
64889;BME280;51386;53.082;8.816;2023-01-15T10:22:30;99383.94;;;12.59;44.85
64889;BME280;51386;53.082;8.816;2023-01-15T10:25:04;99400.22;;;12.56;45.42
64889;BME280;51386;53.082;8.816;2023-01-15T10:27:36;99394.34;;;12.72;45.18
64889;BME280;51386;53.082;8.816;2023-01-15T10:30:15;99386.13;;;12.80;45.24
64889;BME280;51386;53.082;8.816;2023-01-15T10:32:45;99394.72;;;12.75;44.78
64889;BME280;51386;53.082;8.816;2023-01-15T10:35:40;99380.72;;;12.75;45.33
64889;BME280;51386;53.082;8.816;2023-01-15T10:38:22;99381.28;;;12.77;44.71
64889;BME280;51386;53.082;8.816;2023-01-15T10:41:28;99385.25;;;12.68;44.89
64889;BME280;51386;53.082;8.816;2023-01-15T10:44:04;99368.31;;;12.75;44.94
64889;BME280;51386;53.082;8.816;2023-01-15T10:46:37;99372.63;;;12.70;45.03
64889;BME280;51386;53.082;8.816;2023-01-15T10:49:13;99368.09;;;12.77;44.96
64889;BME280;51386;53.082;8.816;2023-01-15T10:51:43;99383.78;;;12.72;44.50
64889;BME280;51386;53.082;8.816;2023-01-15T10:54:22;99365.25;;;12.60;44.29
64889;BME280;51386;53.082;8.816;2023-01-15T10:56:57;99365.25;;;12.60;44.81
64889;BME280;51386;53.082;8.816;2023-01-15T10:59:38;99334.81;;;12.58;45.23
64889;BME280;51386;53.082;8.816;2023-01-15T11:02:23;99338.34;;;12.52;45.38
64889;BME280;51386;53.082;8.816;2023-01-15T11:04:53;99393.78;;;12.52;45.89
64889;BME280;51386;53.082;8.816;2023-01-15T11:07:32;99413.78;;;12.41;47.04
64889;BME280;51386;53.082;8.816;2023-01-15T11:10:07;99396.97;;;12.17;47.47
64889;BME280;51386;53.082;8.816;2023-01-15T11:12:38;99403.34;;;11.85;48.45
64889;BME280;51386;53.082;8.816;2023-01-15T11:15:25;99400.38;;;11.44;49.65
64889;BME280;51386;53.082;8.816;2023-01-15T11:18:18;99399.19;;;11.09;50.96
64889;BME280;51386;53.082;8.816;2023-01-15T11:21:12;99388.56;;;10.91;51.96
64889;BME280;51386;53.082;8.816;2023-01-15T11:23:41;99391.41;;;10.82;52.57
64889;BME280;51386;53.082;8.816;2023-01-15T11:26:17;99382.09;;;10.80;52.79
64889;BME280;51386;53.082;8.816;2023-01-15T11:28:46;99384.97;;;10.78;53.35
64889;BME280;51386;53.082;8.816;2023-01-15T11:31:14;99371.38;;;10.81;53.60
64889;BME280;51386;53.082;8.816;2023-01-15T11:33:54;99368.31;;;10.84;53.14
64889;BME280;51386;53.082;8.816;2023-01-15T11:36:23;99381.66;;;10.89;53.13
64889;BME280;51386;53.082;8.816;2023-01-15T11:38:50;99359.78;;;10.96;53.55
64889;BME280;51386;53.082;8.816;2023-01-15T11:41:27;99405.13;;;10.98;53.44
64889;BME280;51386;53.082;8.816;2023-01-15T11:44:15;99385.28;;;10.95;53.99
64889;BME280;51386;53.082;8.816;2023-01-15T11:47:02;99389.75;;;10.95;53.78
64889;BME280;51386;53.082;8.816;2023-01-15T11:49:51;99384.44;;;11.01;54.21
64889;BME280;51386;53.082;8.816;2023-01-15T11:52:41;99378.53;;;11.12;53.77
64889;BME280;51386;53.082;8.816;2023-01-15T11:55:12;99384.31;;;11.21;53.79
64889;BME280;51386;53.082;8.816;2023-01-15T11:57:41;99377.88;;;11.17;53.27
64889;BME280;51386;53.082;8.816;2023-01-15T12:00:21;99387.56;;;11.23;53.71
64889;BME280;51386;53.082;8.816;2023-01-15T12:02:50;99373.69;;;11.34;53.59
64889;BME280;51386;53.082;8.816;2023-01-15T12:05:21;99359.84;;;11.45;53.64
64889;BME280;51386;53.082;8.816;2023-01-15T12:07:52;99358.16;;;11.57;52.75
64889;BME280;51386;53.082;8.816;2023-01-15T12:10:23;99341.03;;;11.66;52.70
64889;BME280;51386;53.082;8.816;2023-01-15T12:13:26;99352.34;;;11.73;51.72
64889;BME280;51386;53.082;8.816;2023-01-15T12:16:07;99333.66;;;11.81;51.97
64889;BME280;51386;53.082;8.816;2023-01-15T12:18:51;99330.41;;;11.79;50.91
64889;BME280;51386;53.082;8.816;2023-01-15T12:21:58;99314.22;;;11.76;48.75
64889;BME280;51386;53.082;8.816;2023-01-15T12:25:10;99322.66;;;11.84;49.43
64889;BME280;51386;53.082;8.816;2023-01-15T12:27:57;99303.03;;;11.98;48.68
64889;BME280;51386;53.082;8.816;2023-01-15T12:30:41;99318.81;;;12.05;48.55
64889;BME280;51386;53.082;8.816;2023-01-15T12:33:27;99324.81;;;12.12;47.87
64889;BME280;51386;53.082;8.816;2023-01-15T12:36:06;99320.28;;;12.19;47.95
64889;BME280;51386;53.082;8.816;2023-01-15T12:38:48;99317.69;;;12.12;47.72
64889;BME280;51386;53.082;8.816;2023-01-15T12:41:22;99313.75;;;12.21;47.86
64889;BME280;51386;53.082;8.816;2023-01-15T12:43:55;99327.69;;;12.29;47.91
64889;BME280;51386;53.082;8.816;2023-01-15T12:46:44;99353.00;;;12.30;48.43
64889;BME280;51386;53.082;8.816;2023-01-15T12:49:35;99342.63;;;12.16;49.18
64889;BME280;51386;53.082;8.816;2023-01-15T12:52:08;99356.56;;;11.99;50.28
64889;BME280;51386;53.082;8.816;2023-01-15T12:54:46;99338.16;;;11.74;50.51
64889;BME280;51386;53.082;8.816;2023-01-15T12:57:28;99351.56;;;11.66;51.13
64889;BME280;51386;53.082;8.816;2023-01-15T13:00:02;99345.63;;;11.52;51.46
64889;BME280;51386;53.082;8.816;2023-01-15T13:02:44;99326.56;;;11.50;51.55
64889;BME280;51386;53.082;8.816;2023-01-15T13:05:21;99342.16;;;11.52;51.84
64889;BME280;51386;53.082;8.816;2023-01-15T13:07:58;99331.97;;;11.62;51.39
64889;BME280;51386;53.082;8.816;2023-01-15T13:10:28;99326.00;;;11.73;51.80
64889;BME280;51386;53.082;8.816;2023-01-15T13:13:15;99322.34;;;11.74;50.80
64889;BME280;51386;53.082;8.816;2023-01-15T13:15:59;99321.53;;;11.67;50.12
64889;BME280;51386;53.082;8.816;2023-01-15T13:18:38;99306.03;;;11.84;50.51
64889;BME280;51386;53.082;8.816;2023-01-15T13:21:13;99303.03;;;11.98;50.12
64889;BME280;51386;53.082;8.816;2023-01-15T13:24:04;99301.75;;;12.07;49.63
64889;BME280;51386;53.082;8.816;2023-01-15T13:26:51;99301.28;;;12.10;48.86
64889;BME280;51386;53.082;8.816;2023-01-15T13:29:32;99306.84;;;12.20;49.16
64889;BME280;51386;53.082;8.816;2023-01-15T13:32:13;99296.69;;;12.24;48.76